Time;durP1;ratioP1;P1;durP2;ratioP2;P2;SDS_P1;SDS_P2;PMS_P1;PMS_P2;Temp;Humidity;BMP_temperature;BMP_pressure;BME280_temperature;BME280_humidity;BME280_pressure;Samples;Min_cycle;Max_cycle;Signal;HPM_P1;HPM_P2
2024/03/15 01:13:29;;;;;;;24.88;12.48;;;13.10;91.40;;;;;;5051116;28;20068;-74
2024/03/15 01:15:55;;;;;;;25.02;12.43;;;13.20;91.40;;;;;;5038885;28;20495;-76
2024/03/15 01:18:20;;;;;;;25.75;12.70;;;13.20;91.40;;;;;;5072848;28;20175;-74
2024/03/15 01:20:46;;;;;;;22.90;13.35;;;13.10;91.30;;;;;;5054966;28;20028;-74
2024/03/15 01:23:12;;;;;;;23.48;12.77;;;13.20;91.20;;;;;;5072527;28;20072;-74
2024/03/15 01:25:39;;;;;;;22.63;13.20;;;13.10;91.20;;;;;;5072464;28;20040;-74
2024/03/15 01:28:06;;;;;;;28.98;13.95;;;13.20;91.40;;;;;;5072580;28;20075;-74
2024/03/15 01:30:32;;;;;;;24.23;13.07;;;13.10;91.40;;;;;;5072598;28;20033;-74
2024/03/15 01:32:58;;;;;;;24.38;13.43;;;13.00;91.40;;;;;;5072418;28;20111;-74
2024/03/15 01:35:32;;;;;;;26.55;14.00;;;13.00;91.50;;;;;;5072501;28;20120;-75
2024/03/15 01:38:02;;;;;;;24.05;14.27;;;12.90;91.70;;;;;;5071519;28;20036;-75
2024/03/15 01:40:29;;;;;;;23.33;13.10;;;12.90;91.60;;;;;;5072550;28;20044;-75
2024/03/15 01:42:55;;;;;;;23.30;14.10;;;12.90;91.50;;;;;;5072653;28;20045;-75
2024/03/15 01:45:20;;;;;;;34.22;15.35;;;12.80;91.50;;;;;;5072296;28;20130;-74
2024/03/15 01:47:46;;;;;;;23.98;13.77;;;12.80;91.50;;;;;;5072246;28;20040;-73
2024/03/15 01:50:13;;;;;;;22.50;13.13;;;12.80;91.60;;;;;;5072537;28;20036;-74
2024/03/15 01:52:41;;;;;;;26.10;15.10;;;12.70;91.60;;;;;;5072313;28;20024;-75
2024/03/15 01:55:08;;;;;;;22.58;13.98;;;12.70;91.70;;;;;;5072369;28;20083;-74
2024/03/15 01:57:37;;;;;;;20.73;13.50;;;12.70;91.80;;;;;;5072208;28;20494;-73
2024/03/15 02:00:10;;;;;;;23.90;14.32;;;12.60;91.80;;;;;;5072504;28;20037;-76
2024/03/15 02:02:37;;;;;;;27.95;14.52;;;12.60;91.80;;;;;;5072256;28;20032;-74
2024/03/15 02:05:02;;;;;;;23.08;13.75;;;12.60;91.70;;;;;;5071976;28;20397;-74
2024/03/15 02:07:28;;;;;;;28.90;14.95;;;12.60;91.70;;;;;;5071985;28;20056;-75
2024/03/15 02:09:58;;;;;;;25.50;14.07;;;12.60;91.80;;;;;;5071967;28;20024;-75
2024/03/15 02:12:25;;;;;;;25.35;14.25;;;12.50;91.70;;;;;;5071796;28;20115;-74
2024/03/15 02:14:51;;;;;;;29.25;14.93;;;12.50;91.70;;;;;;5053864;28;20048;-74
2024/03/15 02:17:18;;;;;;;27.13;14.93;;;12.60;91.90;;;;;;5071238;28;20029;-75
2024/03/15 02:19:44;;;;;;;27.42;13.65;;;12.50;91.70;;;;;;5072339;28;20048;-75
2024/03/15 02:22:11;;;;;;;31.67;15.13;;;12.50;91.80;;;;;;5072429;28;20057;-74
2024/03/15 02:24:40;;;;;;;28.15;14.50;;;12.50;91.80;;;;;;5072107;28;20045;-74
2024/03/15 02:27:07;;;;;;;30.38;15.32;;;12.40;91.80;;;;;;5072670;28;20159;-75
2024/03/15 02:29:33;;;;;;;24.83;14.75;;;12.40;91.80;;;;;;5054047;28;20036;-74
2024/03/15 02:31:59;;;;;;;26.77;14.43;;;12.30;91.90;;;;;;5072062;28;20500;-74
2024/03/15 02:34:25;;;;;;;26.23;13.68;;;12.30;92.00;;;;;;5072078;28;20112;-74
2024/03/15 02:36:50;;;;;;;29.00;14.25;;;12.30;91.90;;;;;;5071639;28;20036;-75
2024/03/15 02:39:16;;;;;;;25.95;13.80;;;12.30;91.70;;;;;;5071800;28;20112;-74
2024/03/15 02:41:46;;;;;;;25.92;13.88;;;12.30;91.80;;;;;;5071599;28;20533;-74
2024/03/15 02:44:15;;;;;;;20.55;12.88;;;12.30;91.90;;;;;;5072021;28;20033;-75
2024/03/15 02:46:41;;;;;;;24.10;12.27;;;12.30;91.80;;;;;;5071699;28;20035;-73
2024/03/15 02:49:06;;;;;;;21.85;12.88;;;12.30;91.70;;;;;;5071484;28;20036;-73
2024/03/15 02:51:32;;;;;;;27.63;12.80;;;12.30;91.70;;;;;;5071608;28;20096;-73
2024/03/15 02:53:58;;;;;;;19.23;11.60;;;12.30;91.70;;;;;;5071586;28;20117;-75
2024/03/15 02:56:23;;;;;;;25.65;12.73;;;12.20;91.60;;;;;;5071485;28;20031;-74
2024/03/15 02:58:49;;;;;;;22.85;12.07;;;12.10;91.60;;;;;;5071458;28;20097;-74
2024/03/15 03:01:15;;;;;;;19.73;11.88;;;12.10;91.60;;;;;;5071527;28;20056;-74
2024/03/15 03:03:42;;;;;;;19.90;11.48;;;12.00;91.70;;;;;;5053495;28;20056;-74
2024/03/15 03:06:08;;;;;;;22.10;10.95;;;12.00;91.70;;;;;;5071654;28;20037;-75
2024/03/15 03:08:35;;;;;;;21.60;11.60;;;12.10;91.70;;;;;;5071143;28;20041;-74
2024/03/15 03:11:06;;;;;;;22.13;11.50;;;12.10;91.50;;;;;;5071513;28;20024;-75
2024/03/15 03:13:35;;;;;;;21.83;11.02;;;12.10;91.50;;;;;;5071137;28;20032;-75
2024/03/15 03:16:01;;;;;;;19.20;11.80;;;12.20;91.50;;;;;;5071658;28;20446;-74
2024/03/15 03:18:27;;;;;;;22.33;11.45;;;12.20;91.50;;;;;;5053158;28;20447;-75
2024/03/15 03:20:55;;;;;;;23.75;11.73;;;12.10;91.30;;;;;;5071245;28;20032;-74
2024/03/15 03:23:21;;;;;;;23.33;12.05;;;12.10;91.30;;;;;;5053028;28;20068;-75
2024/03/15 03:25:47;;;;;;;18.95;10.77;;;12.00;91.40;;;;;;5071239;28;20044;-74
2024/03/15 03:28:13;;;;;;;18.33;11.40;;;11.90;91.40;;;;;;5071330;28;20040;-74
2024/03/15 03:30:39;;;;;;;20.10;11.23;;;11.90;91.50;;;;;;5077591;28;20043;-75
2024/03/15 03:33:04;;;;;;;20.90;11.07;;;11.90;91.40;;;;;;5075181;28;20039;-73
2024/03/15 03:35:31;;;;;;;25.05;11.68;;;11.90;91.40;;;;;;5074867;28;20059;-73
2024/03/15 03:37:58;;;;;;;20.70;11.43;;;11.90;91.50;;;;;;5075542;28;20036;-74
2024/03/15 03:40:24;;;;;;;24.73;12.13;;;11.90;91.50;;;;;;5075063;28;20032;-74
2024/03/15 03:42:51;;;;;;;16.90;11.02;;;11.80;91.50;;;;;;5074897;28;20036;-73
2024/03/15 03:45:17;;;;;;;21.88;11.35;;;11.70;91.70;;;;;;5074714;28;20049;-74
2024/03/15 03:47:48;;;;;;;21.35;11.23;;;11.70;91.60;;;;;;5074734;28;20049;-75
2024/03/15 03:50:13;;;;;;;19.85;10.32;;;11.70;91.70;;;;;;5074723;28;20042;-74
2024/03/15 03:52:40;;;;;;;17.90;10.77;;;11.60;91.60;;;;;;5074831;28;20119;-74
2024/03/15 03:55:07;;;;;;;20.00;11.50;;;11.60;91.60;;;;;;5074541;28;20447;-74
2024/03/15 03:57:34;;;;;;;17.00;9.98;;;11.60;91.50;;;;;;5075805;28;20442;-75
2024/03/15 04:00:07;;;;;;;24.98;10.98;;;11.60;91.60;;;;;;5078333;28;20033;-75
2024/03/15 04:02:32;;;;;;;19.05;10.40;;;11.50;91.50;;;;;;5075245;28;20105;-74
2024/03/15 04:04:59;;;;;;;17.67;11.30;;;11.60;91.60;;;;;;5074557;28;20447;-74
2024/03/15 04:07:29;;;;;;;28.67;11.82;;;11.60;91.50;;;;;;5074239;28;20083;-75
2024/03/15 04:09:54;;;;;;;23.00;11.65;;;11.60;91.50;;;;;;5056646;28;20483;-75
2024/03/15 04:12:20;;;;;;;16.20;10.73;;;11.50;91.50;;;;;;5074389;28;20028;-74
2024/03/15 04:14:46;;;;;;;20.23;10.82;;;11.50;91.50;;;;;;5074057;28;20055;-74
2024/03/15 04:17:12;;;;;;;16.83;10.93;;;11.50;91.60;;;;;;5099312;22;20051;-75
2024/03/15 04:19:37;;;;;;;16.92;11.45;;;11.50;91.50;;;;;;5114579;28;20032;-74
2024/03/15 04:22:04;;;;;;;20.05;10.88;;;11.50;91.40;;;;;;5114169;28;20040;-74
2024/03/15 04:24:34;;;;;;;18.30;12.02;;;11.40;91.50;;;;;;5114545;28;20150;-74
2024/03/15 04:27:00;;;;;;;21.75;11.80;;;11.30;91.70;;;;;;5114419;28;20039;-74
2024/03/15 04:29:25;;;;;;;18.90;11.20;;;11.20;91.50;;;;;;5114612;28;20039;-74
2024/03/15 04:31:51;;;;;;;18.23;11.65;;;11.20;91.60;;;;;;5114544;28;20039;-74
2024/03/15 04:34:17;;;;;;;18.92;11.10;;;11.20;91.60;;;;;;5114476;28;20498;-75
2024/03/15 04:36:43;;;;;;;17.50;11.35;;;11.20;91.70;;;;;;5114636;28;20023;-73
2024/03/15 04:39:10;;;;;;;18.10;10.85;;;11.30;91.60;;;;;;5114490;28;20027;-74
2024/03/15 04:41:36;;;;;;;15.32;9.93;;;11.30;91.50;;;;;;5113204;28;20459;-73
2024/03/15 04:44:02;;;;;;;16.90;9.95;;;11.40;91.40;;;;;;5107434;28;20060;-73
2024/03/15 04:46:28;;;;;;;20.02;10.73;;;11.30;91.40;;;;;;5098310;28;20044;-74
2024/03/15 04:48:53;;;;;;;15.82;10.05;;;11.30;91.50;;;;;;5096804;28;20153;-73
2024/03/15 04:51:20;;;;;;;18.85;9.90;;;11.30;91.50;;;;;;5113815;28;20070;-74
2024/03/15 04:53:45;;;;;;;17.15;10.32;;;11.20;91.20;;;;;;5113798;28;20042;-73
2024/03/15 04:56:11;;;;;;;20.98;10.10;;;11.10;91.50;;;;;;5114078;28;20114;-73
2024/03/15 04:58:37;;;;;;;16.40;10.25;;;11.10;91.40;;;;;;5104175;28;20036;-74
2024/03/15 05:01:02;;;;;;;18.27;10.52;;;11.10;91.50;;;;;;5093611;28;20036;-74
2024/03/15 05:03:28;;;;;;;18.10;10.10;;;11.10;91.50;;;;;;5093589;28;20032;-73
2024/03/15 05:05:54;;;;;;;17.73;10.13;;;11.00;91.50;;;;;;5093637;28;20036;-74
2024/03/15 05:08:20;;;;;;;18.27;11.98;;;10.90;91.60;;;;;;5093261;28;20487;-75
2024/03/15 05:10:46;;;;;;;20.33;11.73;;;10.70;91.50;;;;;;5093342;28;20028;-75
2024/03/15 05:13:12;;;;;;;17.13;11.30;;;10.70;91.90;;;;;;5093305;28;20051;-73
2024/03/15 05:15:39;;;;;;;17.80;11.73;;;10.60;91.90;;;;;;5093339;28;20024;-74
2024/03/15 05:18:05;;;;;;;18.52;11.50;;;10.60;92.00;;;;;;5092957;28;20058;-74
2024/03/15 05:20:32;;;;;;;18.83;10.95;;;10.50;92.00;;;;;;5093209;28;20024;-74
2024/03/15 05:22:58;;;;;;;17.60;12.18;;;10.50;92.00;;;;;;5093057;28;20093;-75
2024/03/15 05:25:23;;;;;;;14.63;10.02;;;10.60;92.10;;;;;;5092885;28;20036;-75
2024/03/15 05:27:49;;;;;;;16.05;10.48;;;10.60;91.90;;;;;;5092947;28;20399;-74
2024/03/15 05:30:17;;;;;;;14.98;10.52;;;10.60;91.80;;;;;;5093261;28;20120;-73
2024/03/15 05:32:43;;;;;;;16.60;10.60;;;10.60;91.80;;;;;;5074594;28;20511;-75
2024/03/15 05:35:09;;;;;;;16.80;10.18;;;10.60;91.80;;;;;;5092757;28;20063;-74
2024/03/15 05:37:35;;;;;;;18.13;11.15;;;10.50;91.80;;;;;;5092925;28;20024;-75
2024/03/15 05:40:01;;;;;;;19.38;11.57;;;10.50;92.00;;;;;;5093036;28;20032;-75
2024/03/15 05:42:31;;;;;;;21.98;11.32;;;10.40;92.10;;;;;;5093541;28;20032;-75
2024/03/15 05:44:57;;;;;;;18.15;10.73;;;10.50;92.20;;;;;;5092489;28;20135;-74
2024/03/15 05:47:22;;;;;;;20.65;11.05;;;10.50;92.20;;;;;;5092960;28;20135;-75
2024/03/15 05:49:48;;;;;;;21.85;11.82;;;10.60;92.10;;;;;;5092932;28;20029;-75
2024/03/15 05:52:14;;;;;;;19.48;11.45;;;10.70;92.10;;;;;;5092763;28;20032;-75
2024/03/15 05:54:40;;;;;;;19.20;12.27;;;10.70;92.00;;;;;;5092493;28;20055;-74
2024/03/15 05:57:08;;;;;;;18.95;11.80;;;10.80;92.10;;;;;;5092334;28;20032;-73
2024/03/15 05:59:34;;;;;;;18.02;11.05;;;10.80;92.10;;;;;;5092359;28;20129;-74
2024/03/15 06:02:00;;;;;;;16.52;10.88;;;10.90;91.90;;;;;;5093809;28;20036;-74
2024/03/15 06:04:26;;;;;;;19.52;10.82;;;10.80;91.70;;;;;;5093620;28;20501;-75
2024/03/15 06:06:51;;;;;;;16.00;10.45;;;10.80;91.80;;;;;;5092813;28;20020;-74
2024/03/15 06:09:17;;;;;;;18.95;11.27;;;10.80;91.90;;;;;;5092507;28;20036;-74
2024/03/15 06:11:43;;;;;;;17.00;11.85;;;10.90;91.80;;;;;;5092397;28;20056;-72
2024/03/15 06:14:11;;;;;;;21.98;13.75;;;11.00;91.80;;;;;;5092795;28;20111;-75
2024/03/15 06:16:37;;;;;;;20.80;14.05;;;11.20;91.70;;;;;;5092668;28;20075;-75
2024/03/15 06:19:04;;;;;;;23.15;14.50;;;11.30;91.70;;;;;;5092249;28;20039;-74
2024/03/15 06:21:31;;;;;;;20.75;14.02;;;11.60;91.50;;;;;;5092373;28;20032;-74
2024/03/15 06:23:57;;;;;;;20.33;13.95;;;11.60;91.20;;;;;;5092560;28;20031;-77
2024/03/15 06:26:22;;;;;;;22.27;13.68;;;11.60;91.10;;;;;;5092708;28;20032;-74
2024/03/15 06:28:52;;;;;;;21.13;13.40;;;11.70;91.20;;;;;;5092057;28;20040;-76
2024/03/15 06:31:18;;;;;;;20.70;12.30;;;11.70;91.10;;;;;;5091868;28;20036;-76
2024/03/15 06:33:44;;;;;;;18.75;10.45;;;11.70;91.00;;;;;;5057148;28;20032;-75
2024/03/15 06:36:16;;;;;;;15.68;9.80;;;11.90;90.90;;;;;;5091753;28;20028;-76
2024/03/15 06:41:18;;;;;;;20.80;10.27;;;11.90;90.70;;;;;;5091712;28;20060;-75
2024/03/15 06:43:58;;;;;;;15.32;9.80;;;11.90;90.70;;;;;;5091759;28;20047;-76
2024/03/15 06:46:29;;;;;;;19.67;9.40;;;12.00;90.50;;;;;;5091684;28;20097;-75
2024/03/15 06:48:56;;;;;;;15.45;9.35;;;12.60;90.10;;;;;;5091712;28;20067;-75
2024/03/15 06:54:08;;;;;;;13.23;7.90;;;14.90;83.70;;;;;;5092040;28;20090;-76
2024/03/15 06:56:34;;;;;;;19.48;10.40;;;15.90;80.70;;;;;;5091660;28;20089;-75
2024/03/15 06:59:00;;;;;;;23.20;12.20;;;16.90;78.60;;;;;;5091838;28;20029;-77
2024/03/15 07:01:28;;;;;;;13.98;8.63;;;17.70;76.90;;;;;;5090702;28;20047;-77
2024/03/15 07:03:55;;;;;;;14.05;9.13;;;18.30;75.20;;;;;;5092534;28;20036;-76
2024/03/15 07:06:21;;;;;;;18.25;10.45;;;19.00;73.70;;;;;;5096930;28;20483;-78
2024/03/15 07:08:51;;;;;;;14.90;8.50;;;19.30;72.10;;;;;;5095616;28;20062;-77
2024/03/15 07:11:18;;;;;;;13.40;9.65;;;19.20;71.30;;;;;;5095508;28;20083;-76
2024/03/15 07:13:43;;;;;;;15.63;9.20;;;19.40;71.10;;;;;;5095304;28;20040;-79
2024/03/15 07:16:09;;;;;;;13.30;8.00;;;19.70;70.60;;;;;;5095122;28;20051;-76
2024/03/15 07:18:35;;;;;;;15.82;8.02;;;20.30;69.60;;;;;;5094995;28;20472;-75
2024/03/15 07:21:01;;;;;;;16.15;7.97;;;20.70;68.40;;;;;;5095238;28;20051;-75
2024/03/15 07:23:27;;;;;;;12.52;7.75;;;20.80;67.30;;;;;;5096183;28;20035;-83
2024/03/15 07:25:53;;;;;;;16.10;8.73;;;20.90;67.20;;;;;;5096173;28;20036;-83
2024/03/15 07:28:21;;;;;;;16.95;7.60;;;21.10;66.20;;;;;;5098031;28;20040;-82
2024/03/15 07:30:49;;;;;;;21.75;8.02;;;21.00;65.40;;;;;;5104848;28;20041;-81
2024/03/15 07:33:17;;;;;;;15.13;8.18;;;20.40;65.80;;;;;;5096826;28;20036;-79
2024/03/15 07:35:45;;;;;;;12.45;7.95;;;19.90;66.30;;;;;;5095403;28;20024;-81
2024/03/15 07:38:11;;;;;;;12.98;7.97;;;19.80;66.50;;;;;;5095633;28;20119;-80
2024/03/15 07:40:37;;;;;;;12.27;8.23;;;19.30;66.60;;;;;;5081034;28;20075;-80
2024/03/15 07:43:02;;;;;;;12.68;8.02;;;18.40;68.40;;;;;;5104602;28;20032;-81
2024/03/15 07:45:28;;;;;;;14.80;7.82;;;17.70;69.50;;;;;;5098831;28;20111;-84
2024/03/15 07:47:54;;;;;;;17.88;9.45;;;17.30;70.90;;;;;;5104461;28;20040;-87
2024/03/15 07:50:19;;;;;;;13.98;7.75;;;16.90;72.20;;;;;;5112560;28;20122;-79
2024/03/15 07:52:45;;;;;;;17.20;8.73;;;16.50;73.00;;;;;;5110780;28;20525;-82
2024/03/15 07:55:12;;;;;;;18.38;8.07;;;16.30;73.80;;;;;;5095881;28;20472;-83
2024/03/15 07:57:38;;;;;;;22.88;8.60;;;16.20;74.20;;;;;;5108335;28;20123;-83
2024/03/15 08:00:08;;;;;;;20.17;9.20;;;16.10;74.50;;;;;;5116816;28;20386;-83
2024/03/15 08:02:35;;;;;;;16.67;8.57;;;16.00;74.70;;;;;;5117425;28;20498;-82
2024/03/15 08:05:00;;;;;;;20.10;8.88;;;16.00;75.10;;;;;;5116190;28;20039;-82
2024/03/15 08:07:26;;;;;;;26.20;9.63;;;15.80;75.20;;;;;;5097314;28;20048;-83
2024/03/15 08:09:52;;;;;;;22.92;9.18;;;15.80;75.50;;;;;;5099660;28;20028;-82
2024/03/15 08:12:18;;;;;;;10.23;6.60;;;15.80;75.60;;;;;;5097981;28;20057;-82
2024/03/15 08:14:44;;;;;;;12.63;7.78;;;15.60;75.20;;;;;;5103213;28;20040;-84
2024/03/15 08:17:10;;;;;;;20.00;7.97;;;15.50;75.30;;;;;;5104551;28;20109;-83
2024/03/15 08:19:36;;;;;;;15.38;8.65;;;15.50;75.40;;;;;;5107972;28;20028;-83
2024/03/15 08:22:01;;;;;;;17.23;9.10;;;15.40;75.30;;;;;;5097914;28;20059;-82
2024/03/15 08:24:28;;;;;;;20.83;11.07;;;15.40;75.80;;;;;;5114864;28;20448;-85
2024/03/15 08:26:54;;;;;;;18.88;9.65;;;15.40;75.70;;;;;;5099999;28;20395;-85
2024/03/15 08:29:21;;;;;;;18.33;10.45;;;15.30;75.90;;;;;;5116143;28;20562;-83
2024/03/15 08:31:50;;;;;;;17.00;9.60;;;15.60;76.60;;;;;;5089744;28;20043;-84
2024/03/15 08:34:18;;;;;;;18.08;11.35;;;15.70;75.90;;;;;;5110080;28;20028;-82
2024/03/15 08:36:44;;;;;;;16.50;9.85;;;15.90;75.80;;;;;;5106893;28;20111;-84
2024/03/15 08:39:12;;;;;;;16.67;9.13;;;15.80;75.60;;;;;;5104149;28;20054;-83
2024/03/15 08:41:38;;;;;;;16.17;8.13;;;15.90;75.60;;;;;;5111708;28;20043;-84
2024/03/15 08:44:04;;;;;;;17.38;8.13;;;16.00;75.40;;;;;;5114466;28;20038;-79
2024/03/15 08:46:30;;;;;;;12.82;7.50;;;16.20;75.40;;;;;;5114491;28;20034;-80
2024/03/15 08:48:56;;;;;;;13.30;7.30;;;16.40;75.30;;;;;;5115305;28;20191;-85
2024/03/15 08:51:23;;;;;;;16.02;8.50;;;16.60;74.80;;;;;;5115474;28;20102;-82
2024/03/15 08:53:49;;;;;;;17.80;8.70;;;16.70;74.50;;;;;;5114971;28;20198;-84
2024/03/15 08:56:18;;;;;;;22.60;8.23;;;16.80;74.20;;;;;;5115418;28;20173;-82
2024/03/15 08:58:44;;;;;;;18.63;7.80;;;16.90;74.50;;;;;;5117635;28;20024;-84
2024/03/15 09:01:10;;;;;;;18.02;7.20;;;17.00;74.30;;;;;;5117486;28;20081;-81
2024/03/15 09:03:36;;;;;;;16.20;6.38;;;17.10;74.20;;;;;;5114614;28;20024;-81
2024/03/15 09:06:06;;;;;;;11.93;5.25;;;17.20;74.60;;;;;;5117507;28;20222;-86
2024/03/15 09:08:35;;;;;;;12.30;4.85;;;17.20;73.60;;;;;;5116578;28;20105;-82
2024/03/15 09:11:01;;;;;;;19.08;5.75;;;17.30;73.60;;;;;;5110721;28;20488;-81
2024/03/15 09:13:30;;;;;;;12.85;5.13;;;17.40;73.60;;;;;;5094107;28;20391;-85
2024/03/15 09:15:56;;;;;;;34.53;7.30;;;17.50;73.40;;;;;;5101598;28;20084;-85
2024/03/15 09:18:25;;;;;;;21.70;6.70;;;17.60;72.90;;;;;;5114604;28;20086;-87
2024/03/15 09:20:52;;;;;;;14.15;6.15;;;17.70;72.80;;;;;;5115422;28;20047;-87
2024/03/15 09:23:19;;;;;;;18.20;6.30;;;17.80;72.30;;;;;;5115509;28;20047;-87
2024/03/15 09:25:44;;;;;;;18.65;6.60;;;17.90;72.30;;;;;;5116334;28;20126;-86
2024/03/15 09:28:12;;;;;;;16.90;6.95;;;18.00;72.20;;;;;;5114170;28;20130;-86
2024/03/15 09:30:49;;;;;;;16.23;6.97;;;18.00;72.00;;;;;;5114922;28;20118;-86
2024/03/15 09:33:16;;;;;;;20.75;9.55;;;18.00;71.80;;;;;;5115136;28;20045;-87
2024/03/15 09:35:46;;;;;;;12.30;5.57;;;18.00;71.70;;;;;;5115496;28;20056;-86
2024/03/15 09:38:15;;;;;;;11.55;5.63;;;18.00;71.70;;;;;;5113083;28;20023;-89
2024/03/15 09:40:41;;;;;;;27.08;5.60;;;17.90;72.00;;;;;;5111070;28;20039;-86
2024/03/15 09:43:13;;;;;;;14.43;4.97;;;17.90;72.30;;;;;;5108250;28;20031;-87
2024/03/15 09:45:39;;;;;;;14.52;5.13;;;17.90;72.30;;;;;;5119089;28;20518;-88
2024/03/15 09:48:11;;;;;;;16.77;5.28;;;18.00;72.20;;;;;;5103382;28;20048;-89
2024/03/15 09:50:40;;;;;;;17.83;6.50;;;18.00;72.40;;;;;;5086280;28;20028;-87
2024/03/15 09:53:08;;;;;;;18.45;5.97;;;18.00;72.50;;;;;;5095449;28;20387;-88
2024/03/15 09:55:34;;;;;;;10.65;3.97;;;18.00;72.40;;;;;;5095983;28;20049;-87
2024/03/15 09:58:05;;;;;;;14.15;4.38;;;18.10;72.50;;;;;;5096255;28;20028;-85
2024/03/15 10:00:30;;;;;;;9.98;4.97;;;18.10;72.20;;;;;;5103447;28;20044;-81
2024/03/15 10:02:56;;;;;;;10.05;5.10;;;18.10;72.20;;;;;;5099658;28;20043;-83
2024/03/15 10:05:23;;;;;;;13.50;5.15;;;18.10;72.20;;;;;;5104616;28;20114;-87
2024/03/15 10:07:49;;;;;;;21.67;5.65;;;18.10;72.20;;;;;;5102011;28;20055;-85
2024/03/15 10:10:16;;;;;;;18.08;6.20;;;18.20;72.10;;;;;;5107277;28;20054;-85
2024/03/15 10:12:47;;;;;;;16.40;5.78;;;18.20;71.90;;;;;;5118832;28;20036;-85
2024/03/15 10:15:23;;;;;;;11.85;4.55;;;18.20;71.80;;;;;;5123758;28;20038;-86
2024/03/15 10:17:52;;;;;;;11.98;4.47;;;18.10;71.50;;;;;;5106349;28;20515;-85
2024/03/15 10:20:25;;;;;;;10.70;4.32;;;18.10;71.30;;;;;;5114506;28;20044;-84
2024/03/15 10:22:58;;;;;;;12.35;4.72;;;18.00;71.00;;;;;;5116457;28;20027;-84
2024/03/15 10:25:27;;;;;;;13.93;5.20;;;18.00;71.00;;;;;;5113491;28;20028;-84
2024/03/15 10:27:56;;;;;;;16.75;5.20;;;18.10;71.20;;;;;;5113404;28;20040;-84
2024/03/15 10:30:23;;;;;;;12.48;5.10;;;18.20;71.10;;;;;;5112940;28;20036;-84
2024/03/15 10:32:53;;;;;;;16.95;5.30;;;18.20;70.80;;;;;;5114186;28;20036;-85
2024/03/15 10:35:20;;;;;;;12.70;4.05;;;18.30;70.50;;;;;;5119052;28;20040;-84
2024/03/15 10:37:49;;;;;;;10.35;3.40;;;18.30;69.80;;;;;;5125066;28;20103;-84
2024/03/15 10:40:22;;;;;;;8.32;3.08;;;18.20;69.00;;;;;;5117740;28;20039;-85
2024/03/15 10:42:49;;;;;;;11.07;3.55;;;18.20;69.10;;;;;;5118985;28;20040;-83
2024/03/15 10:45:25;;;;;;;9.73;3.78;;;18.30;68.90;;;;;;5099273;28;20502;-85
2024/03/15 10:47:55;;;;;;;11.65;4.03;;;18.20;68.10;;;;;;5116992;28;20399;-83
2024/03/15 10:50:27;;;;;;;10.40;4.00;;;18.30;67.90;;;;;;5117357;28;20459;-84
2024/03/15 10:52:54;;;;;;;10.80;3.38;;;18.30;67.70;;;;;;5114155;28;20114;-83
2024/03/15 10:55:23;;;;;;;10.95;3.05;;;18.20;66.60;;;;;;5117087;28;20097;-81
2024/03/15 10:57:52;;;;;;;13.50;3.90;;;18.20;66.70;;;;;;5116741;28;20465;-78
2024/03/15 11:00:26;;;;;;;9.48;3.63;;;18.20;67.00;;;;;;5117547;28;20046;-84
2024/03/15 11:02:56;;;;;;;8.05;3.03;;;18.30;67.00;;;;;;5107908;28;20096;-79
2024/03/15 11:05:24;;;;;;;11.95;4.10;;;18.30;67.20;;;;;;5114505;28;20059;-80
2024/03/15 11:08:08;;;;;;;8.98;4.00;;;18.40;66.90;;;;;;5081820;28;20559;-81
2024/03/15 11:10:36;;;;;;;15.23;4.78;;;18.60;67.70;;;;;;5109280;28;20020;-81
2024/03/15 11:13:05;;;;;;;15.48;4.07;;;18.70;67.10;;;;;;5109145;28;20032;-82
2024/03/15 11:15:36;;;;;;;10.93;4.18;;;18.90;67.00;;;;;;5106626;28;20042;-86
2024/03/15 11:18:08;;;;;;;14.90;4.22;;;19.10;66.90;;;;;;5114618;28;20446;-85
2024/03/15 11:20:49;;;;;;;9.07;3.22;;;19.20;66.80;;;;;;5101982;28;20097;-86
2024/03/15 11:23:17;;;;;;;11.07;4.38;;;19.50;67.10;;;;;;5114602;28;20403;-85
2024/03/15 11:26:02;;;;;;;12.88;3.28;;;19.60;66.50;;;;;;5117886;28;20086;-82
2024/03/15 11:28:29;;;;;;;9.38;3.35;;;19.50;66.80;;;;;;5104827;28;20515;-85
2024/03/15 11:30:56;;;;;;;8.68;3.20;;;19.50;66.60;;;;;;5107981;28;20028;-85
2024/03/15 11:33:22;;;;;;;12.27;4.45;;;19.50;67.00;;;;;;5104683;28;20479;-84
2024/03/15 11:35:49;;;;;;;8.27;3.38;;;19.50;66.90;;;;;;5107247;28;20024;-85
2024/03/15 11:38:16;;;;;;;11.80;4.15;;;19.50;66.70;;;;;;5107148;28;20428;-85
2024/03/15 11:40:42;;;;;;;10.40;2.72;;;19.50;66.70;;;;;;5104008;28;20028;-83
2024/03/15 11:43:09;;;;;;;7.93;2.80;;;19.40;66.60;;;;;;5106732;28;20139;-83
2024/03/15 11:45:36;;;;;;;13.02;3.17;;;19.30;66.50;;;;;;5104740;28;20028;-82
2024/03/15 11:48:14;;;;;;;21.52;3.80;;;19.40;66.50;;;;;;5108360;28;20048;-84
2024/03/15 11:50:42;;;;;;;16.00;2.75;;;19.40;66.20;;;;;;5106113;28;20036;-84
2024/03/15 11:53:10;;;;;;;10.85;2.60;;;19.50;65.70;;;;;;5106207;28;20176;-83
2024/03/15 11:55:36;;;;;;;8.57;2.35;;;19.60;65.30;;;;;;5104161;28;20028;-85
2024/03/15 11:58:02;;;;;;;5.78;1.85;;;19.70;64.90;;;;;;5113447;28;20032;-82
2024/03/15 12:00:28;;;;;;;7.65;2.50;;;19.90;64.40;;;;;;5115828;28;20058;-81
2024/03/15 12:02:56;;;;;;;11.93;3.55;;;19.90;64.40;;;;;;5117083;28;20088;-84
2024/03/15 12:05:22;;;;;;;12.35;4.75;;;20.00;64.30;;;;;;5108180;28;20107;-86
2024/03/15 12:07:50;;;;;;;14.50;4.53;;;20.20;63.80;;;;;;5123144;28;20044;-83
2024/03/15 12:10:16;;;;;;;12.52;3.20;;;20.40;63.60;;;;;;5103400;28;20036;-80
2024/03/15 12:12:48;;;;;;;8.75;2.75;;;20.60;63.10;;;;;;5098636;28;20084;-82
2024/03/15 12:15:28;;;;;;;7.50;2.33;;;20.60;62.00;;;;;;5116347;28;20032;-81
2024/03/15 12:17:57;;;;;;;9.25;2.63;;;20.60;61.30;;;;;;5115743;28;20048;-80
2024/03/15 12:20:24;;;;;;;9.25;2.45;;;20.50;61.10;;;;;;5117559;28;20340;-81
2024/03/15 12:22:50;;;;;;;9.43;2.50;;;20.60;61.10;;;;;;5114288;28;20487;-78
2024/03/15 12:25:16;;;;;;;7.18;2.50;;;20.50;61.40;;;;;;5102318;28;20051;-77
2024/03/15 12:27:42;;;;;;;8.80;2.80;;;20.50;62.30;;;;;;5114229;28;20450;-79
2024/03/15 12:30:11;;;;;;;11.63;3.45;;;20.40;62.70;;;;;;5114422;28;20036;-80
2024/03/15 12:32:37;;;;;;;12.77;2.75;;;20.30;63.40;;;;;;5114514;28;20504;-79
2024/03/15 12:35:04;;;;;;;10.00;3.78;;;20.40;64.20;;;;;;5114230;28;20115;-82
2024/03/15 12:37:33;;;;;;;13.85;4.68;;;20.40;65.00;;;;;;5114411;28;20515;-81
2024/03/15 12:39:59;;;;;;;12.20;3.90;;;20.40;65.40;;;;;;5114557;28;20046;-77
2024/03/15 12:42:25;;;;;;;13.23;3.45;;;20.40;66.10;;;;;;5095589;28;20096;-78
2024/03/15 12:44:51;;;;;;;12.15;3.33;;;20.50;66.40;;;;;;5114300;28;20037;-78
2024/03/15 12:47:17;;;;;;;10.55;2.78;;;20.50;66.60;;;;;;5114572;28;20502;-79
2024/03/15 12:49:43;;;;;;;9.38;2.88;;;20.60;66.50;;;;;;5114789;28;20027;-80
2024/03/15 12:52:12;;;;;;;10.10;2.72;;;20.80;66.30;;;;;;5114779;28;20089;-75
2024/03/15 12:54:42;;;;;;;13.68;3.13;;;21.10;65.90;;;;;;5110811;28;20028;-75
2024/03/15 12:57:09;;;;;;;11.27;2.88;;;21.20;65.40;;;;;;5106038;28;20503;-74
2024/03/15 12:59:35;;;;;;;16.33;3.00;;;21.40;65.00;;;;;;5112314;28;20069;-75
2024/03/15 13:02:05;;;;;;;14.35;3.53;;;21.50;64.70;;;;;;5109342;28;20427;-76
2024/03/15 13:04:30;;;;;;;11.98;3.03;;;21.60;64.60;;;;;;5113808;28;20058;-76
2024/03/15 13:06:56;;;;;;;11.10;3.05;;;21.60;64.50;;;;;;5113775;28;20475;-75
2024/03/15 13:09:23;;;;;;;12.75;3.05;;;21.50;64.40;;;;;;5101104;28;20349;-75
2024/03/15 13:11:48;;;;;;;10.45;2.75;;;21.50;64.90;;;;;;5112127;28;20032;-75
2024/03/15 13:14:14;;;;;;;8.48;3.03;;;21.50;64.50;;;;;;5093842;28;20043;-77
2024/03/15 13:16:40;;;;;;;8.82;2.80;;;21.50;64.70;;;;;;5113391;28;20035;-75
2024/03/15 13:19:06;;;;;;;13.23;3.22;;;21.60;64.90;;;;;;5113554;28;20031;-74
2024/03/15 13:21:34;;;;;;;7.43;2.30;;;21.60;65.30;;;;;;5113750;28;20031;-75
2024/03/15 13:24:01;;;;;;;11.27;2.97;;;21.60;65.20;;;;;;5113378;28;20026;-76
2024/03/15 13:26:30;;;;;;;14.32;3.00;;;21.60;65.90;;;;;;5113105;28;20119;-75
2024/03/15 13:28:56;;;;;;;14.02;2.40;;;21.60;65.30;;;;;;5095879;28;20459;-76
2024/03/15 13:31:21;;;;;;;13.18;2.55;;;21.70;65.60;;;;;;5091959;28;20036;-76
2024/03/15 13:33:47;;;;;;;14.20;2.40;;;21.70;65.90;;;;;;5073923;28;20078;-76
2024/03/15 13:36:13;;;;;;;10.40;2.60;;;21.80;66.00;;;;;;5092332;28;20039;-77
2024/03/15 13:38:41;;;;;;;9.95;3.13;;;21.60;65.80;;;;;;5092813;28;20035;-75
2024/03/15 13:41:13;;;;;;;9.82;2.50;;;21.60;65.90;;;;;;5074609;28;20031;-76
2024/03/15 13:43:40;;;;;;;10.13;3.10;;;21.50;66.00;;;;;;5096390;28;20409;-77
2024/03/15 13:46:12;;;;;;;9.85;2.35;;;21.30;66.10;;;;;;5105935;28;20252;-77
2024/03/15 13:48:39;;;;;;;9.40;2.47;;;21.10;66.40;;;;;;5102406;28;20055;-77
2024/03/15 13:51:05;;;;;;;9.45;2.63;;;20.90;66.50;;;;;;5095306;28;20125;-77